createdAt,value
2022-12-27T00:00:36.651Z,1.97
2022-12-27T00:03:03.639Z,2.30
2022-12-27T00:05:30.283Z,2.27
2022-12-27T00:07:56.918Z,3.27
2022-12-27T00:10:23.564Z,2.43
2022-12-27T00:12:50.210Z,2.10
2022-12-27T00:15:17.699Z,2.60
2022-12-27T00:17:44.341Z,2.23
2022-12-27T00:20:12.074Z,2.37
2022-12-27T00:22:39.194Z,1.87
2022-12-27T00:25:06.686Z,2.53
2022-12-27T00:27:33.409Z,2.67
2022-12-27T00:30:00.056Z,2.27
2022-12-27T00:32:27.562Z,2.80
2022-12-27T00:34:54.177Z,2.43
2022-12-27T00:37:20.871Z,1.93
2022-12-27T00:39:47.781Z,2.03
2022-12-27T00:42:14.453Z,2.80
2022-12-27T00:44:42.479Z,2.60
2022-12-27T00:47:09.104Z,2.33
2022-12-27T00:49:36.563Z,3.10
2022-12-27T00:52:03.336Z,2.67
2022-12-27T00:54:30.042Z,2.83
2022-12-27T00:56:56.698Z,3.00
2022-12-27T00:59:23.371Z,2.97
2022-12-27T01:01:50.071Z,2.47
2022-12-27T01:04:16.782Z,1.83
2022-12-27T01:06:45.008Z,2.63
2022-12-27T01:09:11.751Z,2.50
2022-12-27T01:11:40.308Z,2.83
2022-12-27T01:14:06.963Z,1.87
2022-12-27T01:16:34.993Z,2.10
2022-12-27T01:19:01.808Z,2.50
2022-12-27T01:21:30.145Z,2.37
2022-12-27T01:23:57.684Z,2.00
2022-12-27T01:26:24.746Z,2.30
2022-12-27T01:28:52.693Z,2.33
2022-12-27T01:31:24.258Z,2.57
2022-12-27T01:33:54.773Z,2.37
2022-12-27T01:36:23.120Z,2.30
2022-12-27T01:38:50.155Z,2.23
2022-12-27T01:41:38.030Z,2.80
2022-12-27T01:44:48.571Z,3.73
2022-12-27T01:47:21.154Z,4.00
2022-12-27T01:49:56.007Z,1.87
2022-12-27T01:52:25.529Z,2.97
2022-12-27T01:54:53.626Z,2.60
2022-12-27T01:57:21.959Z,2.50
2022-12-27T01:59:49.140Z,3.50
2022-12-27T02:02:16.005Z,2.43
2022-12-27T02:04:43.460Z,2.23
2022-12-27T02:07:10.165Z,2.17
2022-12-27T02:09:41.948Z,1.93
2022-12-27T02:12:10.340Z,3.03
2022-12-27T02:14:41.066Z,2.90
2022-12-27T02:17:11.683Z,2.60
2022-12-27T02:19:48.589Z,2.37
2022-12-27T02:22:54.904Z,2.10
2022-12-27T02:25:34.307Z,1.80
2022-12-27T02:28:11.347Z,2.63
2022-12-27T02:30:39.513Z,2.97
2022-12-27T02:33:13.265Z,3.37
2022-12-27T02:35:42.865Z,3.13
2022-12-27T02:38:13.756Z,2.60
2022-12-27T02:41:02.110Z,2.37
2022-12-27T02:43:47.868Z,2.70
2022-12-27T02:46:38.461Z,2.60
2022-12-27T02:49:41.968Z,3.50
2022-12-27T02:52:36.055Z,3.27
2022-12-27T02:55:26.955Z,2.43
2022-12-27T02:58:07.249Z,2.83
2022-12-27T03:01:04.146Z,3.40
2022-12-27T03:03:44.715Z,2.73
2022-12-27T03:06:40.534Z,3.00
2022-12-27T03:10:04.403Z,2.30
2022-12-27T03:13:02.393Z,2.87
2022-12-27T03:15:57.278Z,2.83
2022-12-27T03:18:44.048Z,2.27
2022-12-27T03:21:33.808Z,2.87
2022-12-27T03:24:20.819Z,3.13
2022-12-27T03:26:49.870Z,2.30
2022-12-27T03:29:37.412Z,1.97
2022-12-27T03:32:34.948Z,3.33
2022-12-27T03:35:09.682Z,2.87
2022-12-27T03:37:58.512Z,3.53
2022-12-27T03:40:34.344Z,3.13
2022-12-27T03:43:10.425Z,3.43
2022-12-27T03:46:11.886Z,2.63
2022-12-27T03:48:56.239Z,3.07
2022-12-27T03:51:26.422Z,2.73
2022-12-27T03:53:59.483Z,3.57
2022-12-27T03:56:26.270Z,2.23
2022-12-27T03:58:54.161Z,2.70
2022-12-27T04:01:20.834Z,2.70
2022-12-27T04:03:47.517Z,2.83
2022-12-27T04:06:14.170Z,3.03
2022-12-27T04:08:59.740Z,2.23
2022-12-27T04:11:44.461Z,2.77
2022-12-27T04:14:29.047Z,2.47
2022-12-27T04:17:13.738Z,3.23
2022-12-27T04:19:58.426Z,2.30
2022-12-27T04:22:43.155Z,2.73
2022-12-27T04:25:28.365Z,2.10
2022-12-27T04:28:12.939Z,2.93
2022-12-27T04:30:57.609Z,3.13
2022-12-27T04:33:42.361Z,2.07
2022-12-27T04:36:09.446Z,2.63
2022-12-27T04:38:36.131Z,2.20
2022-12-27T04:41:21.537Z,2.73
2022-12-27T04:44:06.050Z,2.37
2022-12-27T04:46:53.297Z,3.17
2022-12-27T04:49:41.754Z,4.10
2022-12-27T04:52:32.112Z,2.93
2022-12-27T04:55:00.515Z,3.03
2022-12-27T04:57:28.237Z,2.53
2022-12-27T05:00:13.008Z,2.83
2022-12-27T05:02:40.675Z,2.60
2022-12-27T05:05:08.930Z,3.13
2022-12-27T05:07:56.104Z,2.27
2022-12-27T05:10:41.030Z,3.03
2022-12-27T05:13:29.652Z,3.37
2022-12-27T05:15:56.393Z,2.67
2022-12-27T05:18:23.408Z,3.30
2022-12-27T05:20:50.128Z,3.33
2022-12-27T05:23:35.053Z,3.13
2022-12-27T05:26:02.084Z,3.60
2022-12-27T05:28:30.206Z,3.00
2022-12-27T05:31:01.639Z,3.20
2022-12-27T05:33:30.817Z,3.27
2022-12-27T05:35:58.763Z,2.57
2022-12-27T05:38:25.618Z,3.20
2022-12-27T05:40:57.581Z,2.90
2022-12-27T05:43:24.230Z,2.90
2022-12-27T05:45:51.497Z,2.60
2022-12-27T05:48:18.238Z,2.13
2022-12-27T05:50:44.991Z,2.10
2022-12-27T05:53:11.897Z,2.20
2022-12-27T05:55:38.588Z,2.97
2022-12-27T05:58:05.256Z,2.93
2022-12-27T06:00:31.928Z,3.20
2022-12-27T06:02:59.296Z,2.23
2022-12-27T06:05:26.033Z,2.03
2022-12-27T06:07:52.612Z,2.33
2022-12-27T06:10:19.397Z,2.43
2022-12-27T06:12:46.046Z,2.33
2022-12-27T06:15:12.641Z,2.43
2022-12-27T06:17:39.270Z,2.17
2022-12-27T06:20:07.574Z,2.17
2022-12-27T06:22:34.171Z,2.17
2022-12-27T06:25:00.787Z,2.07
2022-12-27T06:27:27.483Z,2.60
2022-12-27T06:29:54.109Z,3.03
2022-12-27T06:32:20.737Z,2.50
2022-12-27T06:34:47.346Z,2.13
2022-12-27T06:37:14.718Z,2.53
2022-12-27T06:39:41.382Z,3.10
2022-12-27T06:42:08.072Z,2.43
2022-12-27T06:44:34.799Z,1.93
2022-12-27T06:47:02.096Z,2.30
2022-12-27T06:49:29.007Z,2.53
2022-12-27T06:51:59.489Z,1.80
2022-12-27T06:54:28.678Z,2.50
2022-12-27T06:56:56.188Z,2.37
2022-12-27T06:59:22.917Z,2.57
2022-12-27T07:01:49.778Z,2.70
2022-12-27T07:04:16.497Z,2.10
2022-12-27T07:06:43.136Z,2.47
2022-12-27T07:09:09.742Z,2.57
2022-12-27T07:11:37.558Z,2.73
2022-12-27T07:14:04.294Z,2.20
2022-12-27T07:16:31.174Z,2.60
2022-12-27T07:18:59.228Z,2.57
2022-12-27T07:21:28.602Z,2.90
2022-12-27T07:23:55.744Z,2.60
2022-12-27T07:26:25.285Z,2.13
2022-12-27T07:28:54.081Z,2.97
2022-12-27T07:31:23.784Z,2.83
2022-12-27T07:33:50.798Z,2.00
2022-12-27T07:36:19.714Z,3.23
2022-12-27T07:38:46.470Z,2.23
2022-12-27T07:41:13.546Z,2.40
2022-12-27T07:43:40.539Z,2.57
2022-12-27T07:46:10.737Z,2.50
2022-12-27T07:48:37.499Z,2.57
2022-12-27T07:51:04.290Z,3.10
2022-12-27T07:53:31.019Z,2.63
2022-12-27T07:55:57.996Z,2.73
2022-12-27T07:58:25.088Z,2.60
2022-12-27T08:00:52.293Z,3.00
2022-12-27T08:03:19.893Z,2.90
2022-12-27T08:05:46.979Z,2.70
2022-12-27T08:08:15.950Z,2.63
2022-12-27T08:10:42.561Z,3.00
2022-12-27T08:13:09.220Z,2.47
2022-12-27T08:15:36.811Z,2.80
2022-12-27T08:18:03.980Z,3.37
2022-12-27T08:20:31.642Z,2.73
2022-12-27T08:22:58.340Z,2.53
2022-12-27T08:25:25.210Z,3.40
2022-12-27T08:27:51.820Z,2.57
2022-12-27T08:30:19.048Z,2.97
2022-12-27T08:32:45.722Z,2.57
2022-12-27T08:35:50.348Z,2.47
2022-12-27T08:38:01.676Z,2.10
2022-12-27T08:40:28.362Z,2.00
2022-12-27T08:42:55.077Z,2.00
2022-12-27T08:45:21.710Z,2.30
2022-12-27T08:47:48.359Z,2.83
2022-12-27T08:50:15.056Z,2.17
2022-12-27T08:52:41.692Z,2.40
2022-12-27T08:55:09.620Z,3.07
2022-12-27T08:57:36.228Z,3.03
2022-12-27T09:00:06.073Z,2.33
2022-12-27T09:02:32.766Z,3.27
2022-12-27T09:04:59.461Z,2.53
2022-12-27T09:07:26.126Z,3.20
2022-12-27T09:09:52.759Z,1.97
2022-12-27T09:12:20.030Z,3.93
2022-12-27T09:14:46.652Z,3.83
2022-12-27T09:17:13.341Z,2.47
2022-12-27T09:19:40.025Z,2.67
2022-12-27T09:22:06.640Z,3.17
2022-12-27T09:24:33.376Z,2.70
2022-12-27T09:27:00.039Z,2.07
2022-12-27T09:29:27.358Z,2.93
2022-12-27T09:31:54.001Z,3.83
2022-12-27T09:34:20.650Z,2.90
2022-12-27T09:36:47.224Z,3.20
2022-12-27T09:39:14.761Z,2.70
2022-12-27T09:44:46.207Z,3.20
2022-12-27T09:47:17.122Z,2.67
2022-12-27T09:49:48.786Z,1.83
2022-12-27T09:52:18.558Z,3.10
2022-12-27T09:54:58.023Z,3.17
2022-12-27T09:57:35.334Z,2.83
2022-12-27T10:00:06.612Z,2.77
2022-12-27T10:02:34.764Z,2.20
2022-12-27T10:08:02.922Z,2.07
2022-12-27T10:10:40.225Z,2.97
2022-12-27T10:13:20.801Z,3.77
2022-12-27T10:15:53.483Z,2.57
2022-12-27T10:18:28.630Z,2.20
2022-12-27T10:21:02.069Z,2.57
2022-12-27T10:23:31.599Z,2.40
2022-12-27T10:26:00.709Z,2.73
2022-12-27T10:28:33.879Z,3.30
2022-12-27T10:31:03.579Z,3.50
2022-12-27T10:33:32.984Z,3.10
2022-12-27T10:36:10.647Z,3.30
2022-12-27T10:38:37.276Z,3.60
2022-12-27T10:41:23.892Z,2.27
2022-12-27T10:43:52.199Z,3.40
2022-12-27T10:46:23.617Z,3.00
2022-12-27T10:51:46.377Z,4.07
2022-12-27T10:54:14.721Z,4.13
2022-12-27T10:56:43.513Z,4.63
2022-12-27T10:59:16.160Z,5.77
2022-12-27T11:01:45.143Z,3.83
2022-12-27T11:04:19.819Z,3.10
2022-12-27T11:06:49.245Z,3.93
2022-12-27T11:09:34.306Z,2.90
2022-12-27T11:12:18.144Z,2.87
2022-12-27T11:14:56.936Z,3.17
2022-12-27T11:17:27.373Z,4.10
2022-12-27T11:19:55.974Z,3.80
2022-12-27T11:22:22.736Z,4.43
2022-12-27T11:24:51.421Z,2.90
2022-12-27T11:27:23.195Z,3.67
2022-12-27T11:29:50.936Z,4.33
2022-12-27T11:32:18.425Z,2.43
2022-12-27T11:34:48.396Z,3.90
2022-12-27T11:37:18.545Z,4.33
2022-12-27T11:39:49.371Z,5.03
2022-12-27T11:42:22.278Z,4.90
2022-12-27T11:45:01.614Z,4.07
2022-12-27T11:47:36.889Z,4.63
2022-12-27T11:50:22.229Z,3.63
2022-12-27T11:53:05.170Z,3.87
2022-12-27T11:55:55.942Z,4.43
2022-12-27T11:59:14.286Z,4.27
2022-12-27T12:01:58.256Z,3.67
2022-12-27T12:04:59.023Z,4.13
2022-12-27T12:07:49.454Z,3.57
2022-12-27T12:10:27.861Z,2.57
2022-12-27T12:13:30.365Z,3.30
2022-12-27T12:16:33.975Z,3.97
2022-12-27T12:19:10.114Z,3.47
2022-12-27T12:21:45.997Z,3.20
2022-12-27T12:24:43.143Z,3.10
2022-12-27T12:27:28.943Z,3.00
2022-12-27T12:30:11.028Z,3.33
2022-12-27T12:32:58.961Z,2.97
2022-12-27T12:35:43.774Z,3.17
2022-12-27T12:38:21.980Z,2.87
2022-12-27T12:41:21.333Z,3.43
2022-12-27T12:44:23.299Z,3.30
2022-12-27T12:46:57.370Z,2.70
2022-12-27T12:49:38.053Z,3.20
2022-12-27T12:52:25.438Z,3.30
2022-12-27T12:55:12.196Z,4.00
2022-12-27T12:57:48.561Z,2.93
2022-12-27T13:00:36.444Z,3.33
2022-12-27T13:03:39.597Z,3.03
2022-12-27T13:06:19.136Z,2.63
2022-12-27T13:08:55.815Z,3.77
2022-12-27T13:11:34.479Z,3.77
2022-12-27T13:14:15.619Z,3.43
2022-12-27T13:16:52.734Z,3.00
2022-12-27T13:19:37.834Z,3.23
2022-12-27T13:22:14.080Z,3.13
2022-12-27T13:24:53.462Z,3.13
2022-12-27T13:27:29.142Z,3.00
2022-12-27T13:30:07.334Z,2.83
2022-12-27T13:32:53.011Z,3.97
2022-12-27T13:35:35.408Z,3.50
2022-12-27T13:38:21.925Z,2.90
2022-12-27T13:41:04.836Z,3.17
2022-12-27T13:43:54.619Z,2.67
2022-12-27T13:46:42.263Z,2.60
2022-12-27T13:49:26.694Z,2.97
2022-12-27T13:51:59.908Z,3.30
2022-12-27T13:54:57.146Z,3.07
2022-12-27T13:58:04.277Z,3.10
2022-12-27T14:00:38.283Z,3.87
2022-12-27T14:03:40.413Z,2.30
2022-12-27T14:06:29.073Z,3.13
2022-12-27T14:09:43.749Z,3.40
2022-12-27T14:12:42.260Z,3.80
2022-12-27T14:15:16.974Z,3.67
2022-12-27T14:17:50.313Z,2.57
2022-12-27T14:20:40.248Z,2.60
2022-12-27T14:23:36.833Z,3.50
2022-12-27T14:26:46.288Z,3.10
2022-12-27T14:29:42.667Z,3.43
2022-12-27T14:32:37.423Z,3.33
2022-12-27T14:35:32.999Z,3.80
2022-12-27T14:38:46.086Z,4.07
2022-12-27T14:41:38.473Z,3.97
2022-12-27T14:44:38.409Z,3.23
2022-12-27T14:47:37.805Z,3.87
2022-12-27T14:50:49.919Z,3.57
2022-12-27T14:53:43.423Z,3.07
2022-12-27T14:56:21.247Z,3.47
2022-12-27T14:58:58.070Z,4.17
2022-12-27T15:01:45.655Z,3.63
2022-12-27T15:04:42.695Z,3.93
2022-12-27T15:07:41.726Z,3.60
2022-12-27T15:10:17.681Z,3.80
2022-12-27T15:12:51.021Z,3.93
2022-12-27T15:15:29.038Z,4.97
2022-12-27T15:18:36.629Z,4.40
2022-12-27T15:21:34.657Z,3.63
2022-12-27T15:24:19.196Z,3.93
2022-12-27T15:26:51.706Z,4.10
2022-12-27T15:29:30.971Z,4.17
2022-12-27T15:32:06.234Z,4.30
2022-12-27T15:34:49.955Z,2.30
2022-12-27T15:38:00.532Z,3.47
2022-12-27T15:40:54.153Z,3.00
2022-12-27T15:44:01.053Z,4.97
2022-12-27T15:47:07.839Z,4.10
2022-12-27T15:50:16.010Z,5.30
2022-12-27T15:52:58.014Z,3.77
2022-12-27T15:55:45.474Z,4.30
2022-12-27T15:58:16.978Z,4.93
2022-12-27T16:01:05.883Z,4.47
2022-12-27T16:03:36.551Z,4.73
2022-12-27T16:06:06.925Z,4.30
2022-12-27T16:08:37.085Z,5.40
2022-12-27T16:11:09.399Z,5.63
2022-12-27T16:13:48.124Z,4.73
2022-12-27T16:16:54.458Z,4.97
2022-12-27T16:19:50.199Z,4.63
2022-12-27T16:22:27.965Z,5.83
2022-12-27T16:24:55.022Z,5.63
2022-12-27T16:27:28.796Z,6.03
2022-12-27T16:29:56.206Z,5.93
2022-12-27T16:32:25.153Z,5.57
2022-12-27T16:34:54.919Z,5.53
2022-12-27T16:37:31.106Z,5.23
2022-12-27T16:40:18.481Z,4.57
2022-12-27T16:43:30.198Z,5.27
2022-12-27T16:46:08.558Z,4.67
2022-12-27T16:48:47.561Z,5.83
2022-12-27T16:51:22.719Z,5.23
2022-12-27T16:54:04.676Z,5.77
2022-12-27T16:56:34.163Z,5.33
2022-12-27T16:59:01.089Z,5.33
2022-12-27T17:01:57.539Z,5.50
2022-12-27T17:04:53.304Z,5.30
2022-12-27T17:07:46.475Z,4.30
2022-12-27T17:10:42.079Z,4.67
2022-12-27T17:13:13.149Z,4.97
2022-12-27T17:15:49.680Z,4.67
2022-12-27T17:18:26.273Z,4.80
2022-12-27T17:21:00.190Z,6.00
2022-12-27T17:23:28.605Z,5.60
2022-12-27T17:26:06.179Z,5.13
2022-12-27T17:28:40.607Z,4.80
2022-12-27T17:31:14.593Z,5.23
2022-12-27T17:33:56.127Z,4.40
2022-12-27T17:36:40.121Z,4.33
2022-12-27T17:39:19.928Z,5.00
2022-12-27T17:42:21.824Z,5.13
2022-12-27T17:45:09.372Z,5.27
2022-12-27T17:47:49.630Z,5.67
2022-12-27T17:50:21.126Z,5.60
2022-12-27T17:53:21.999Z,6.93
2022-12-27T17:56:20.302Z,6.47
2022-12-27T17:58:47.044Z,7.37
2022-12-27T18:01:14.224Z,5.73
2022-12-27T18:03:45.283Z,5.40
2022-12-27T18:06:17.409Z,6.30
2022-12-27T18:08:48.078Z,7.50
2022-12-27T18:11:15.993Z,8.00
2022-12-27T18:13:49.574Z,6.53
2022-12-27T18:16:20.673Z,6.83
2022-12-27T18:18:49.694Z,8.50
2022-12-27T18:21:23.389Z,6.83
2022-12-27T18:23:52.841Z,5.90
2022-12-27T18:26:22.310Z,7.83
2022-12-27T18:28:49.134Z,6.53
2022-12-27T18:31:22.565Z,7.03
2022-12-27T18:33:51.003Z,7.43
2022-12-27T18:36:23.416Z,7.20
2022-12-27T18:38:55.032Z,7.37
2022-12-27T18:41:24.242Z,6.83
2022-12-27T18:43:59.291Z,6.67
2022-12-27T18:46:29.801Z,7.40
2022-12-27T18:48:57.178Z,7.17
2022-12-27T18:51:30.491Z,6.43
2022-12-27T18:53:57.210Z,7.57
2022-12-27T18:56:29.701Z,7.10
2022-12-27T18:59:05.076Z,7.13
2022-12-27T19:01:39.643Z,7.67
2022-12-27T19:04:28.307Z,7.67
2022-12-27T19:07:04.327Z,7.93
2022-12-27T19:09:34.304Z,7.47
2022-12-27T19:12:04.347Z,7.50
2022-12-27T19:14:37.048Z,7.70
2022-12-27T19:17:10.463Z,8.07
2022-12-27T19:19:37.896Z,7.30
2022-12-27T19:22:33.603Z,9.47
2022-12-27T19:25:01.588Z,8.70
2022-12-27T19:27:28.895Z,8.70
2022-12-27T19:29:55.543Z,9.50
2022-12-27T19:32:26.739Z,9.33
2022-12-27T19:34:57.207Z,9.53
2022-12-27T19:37:26.363Z,8.00
2022-12-27T19:39:53.353Z,9.27
2022-12-27T19:42:26.593Z,10.90
2022-12-27T19:44:53.889Z,11.13
2022-12-27T19:47:20.531Z,10.03
2022-12-27T19:49:47.136Z,9.63
2022-12-27T19:52:17.764Z,9.93
2022-12-27T19:54:44.710Z,9.57
2022-12-27T19:57:11.949Z,9.83
2022-12-27T19:59:38.860Z,9.37
2022-12-27T20:02:06.788Z,9.93
2022-12-27T20:04:33.681Z,9.37
2022-12-27T20:07:01.359Z,9.10
2022-12-27T20:09:28.225Z,8.50
2022-12-27T20:11:54.944Z,9.43
2022-12-27T20:14:21.755Z,9.60
2022-12-27T20:16:48.548Z,8.90
2022-12-27T20:19:17.324Z,8.80
2022-12-27T20:21:43.995Z,10.77
2022-12-27T20:24:11.486Z,10.33
2022-12-27T20:26:38.749Z,10.00
2022-12-27T20:29:05.397Z,9.37
2022-12-27T20:31:32.062Z,8.57
2022-12-27T20:33:58.696Z,6.27
2022-12-27T20:36:26.126Z,7.47
2022-12-27T20:38:52.769Z,7.10
2022-12-27T20:41:20.893Z,7.27
2022-12-27T20:43:47.655Z,7.23
2022-12-27T20:46:16.726Z,7.90
2022-12-27T20:48:46.283Z,8.00
2022-12-27T20:51:15.342Z,8.27
2022-12-27T20:53:43.140Z,8.33
2022-12-27T20:56:12.154Z,8.33
2022-12-27T20:58:38.859Z,8.20
2022-12-27T21:01:07.059Z,6.93
2022-12-27T21:03:33.879Z,6.50
2022-12-27T21:06:05.595Z,6.60
2022-12-27T21:08:32.309Z,6.83
2022-12-27T21:11:06.063Z,6.87
2022-12-27T21:13:34.741Z,6.40
2022-12-27T21:16:01.443Z,7.50
2022-12-27T21:18:30.923Z,7.60
2022-12-27T21:21:01.264Z,6.73
2022-12-27T21:23:31.434Z,5.93
2022-12-27T21:26:03.074Z,7.63
2022-12-27T21:28:30.358Z,6.87
2022-12-27T21:30:57.296Z,7.00
2022-12-27T21:33:23.957Z,6.70
2022-12-27T21:35:55.433Z,7.80
2022-12-27T21:38:22.124Z,6.70
2022-12-27T21:40:55.655Z,7.17
2022-12-27T21:43:22.509Z,7.70
2022-12-27T21:45:49.852Z,8.00
2022-12-27T21:48:16.631Z,7.63
2022-12-27T21:50:44.359Z,7.30
2022-12-27T21:53:11.265Z,7.13
2022-12-27T21:55:38.018Z,6.30
2022-12-27T21:58:04.730Z,7.30
2022-12-27T22:00:31.367Z,7.50
2022-12-27T22:02:58.848Z,6.80
2022-12-27T22:05:27.427Z,6.37
2022-12-27T22:07:54.509Z,6.60
2022-12-27T22:10:21.264Z,6.20
2022-12-27T22:12:48.584Z,6.47
2022-12-27T22:15:15.467Z,5.30
2022-12-27T22:17:42.164Z,5.80
2022-12-27T22:20:10.843Z,5.23
2022-12-27T22:22:37.702Z,5.93
2022-12-27T22:25:04.978Z,5.27
2022-12-27T22:27:31.611Z,5.23
2022-12-27T22:30:00.448Z,5.47
2022-12-27T22:32:27.103Z,5.07
2022-12-27T22:34:53.986Z,5.10
2022-12-27T22:37:21.458Z,5.00
2022-12-27T22:39:48.098Z,5.60
2022-12-27T22:42:14.723Z,5.00
2022-12-27T22:44:43.026Z,4.87
2022-12-27T22:47:27.243Z,5.80
2022-12-27T22:49:54.771Z,4.53
2022-12-27T22:52:22.127Z,4.63
2022-12-27T22:55:05.590Z,5.33
2022-12-27T22:57:33.606Z,5.27
2022-12-27T23:00:00.280Z,4.77
2022-12-27T23:02:27.691Z,5.17
2022-12-27T23:04:54.781Z,4.83
2022-12-27T23:08:04.447Z,5.83
2022-12-27T23:10:10.213Z,4.67
2022-12-27T23:12:37.598Z,5.57
2022-12-27T23:15:05.248Z,5.27
2022-12-27T23:17:32.597Z,4.80
2022-12-27T23:19:59.363Z,4.93
2022-12-27T23:22:26.672Z,4.30
2022-12-27T23:24:53.439Z,4.63
2022-12-27T23:27:20.192Z,4.90
2022-12-27T23:29:46.847Z,4.50
2022-12-27T23:32:13.611Z,4.43
2022-12-27T23:34:40.210Z,4.47
2022-12-27T23:37:07.220Z,4.30
2022-12-27T23:39:34.595Z,4.20
2022-12-27T23:42:01.283Z,4.80
2022-12-27T23:44:34.337Z,5.03
2022-12-27T23:47:02.589Z,4.37
2022-12-27T23:49:30.178Z,4.77
2022-12-27T23:51:56.868Z,4.63
2022-12-27T23:54:23.587Z,4.83
2022-12-27T23:56:50.913Z,4.50
2022-12-27T23:59:17.582Z,4.00
